Time;durP1;ratioP1;P1;durP2;ratioP2;P2;SDS_P1;SDS_P2;PMS_P1;PMS_P2;Temp;Humidity;BMP_temperature;BMP_pressure;BME280_temperature;BME280_humidity;BME280_pressure;Samples;Min_cycle;Max_cycle;Signal;HPM_P1;HPM_P2
2022/03/04 00:02:03;;;;;;;1.05;0.52;;;2.40;99.90;;;;;;4996735;28;20034;-74
2022/03/04 00:04:28;;;;;;;0.20;0.20;;;2.40;99.90;;;;;;4975980;28;20042;-74
2022/03/04 00:06:55;;;;;;;0.98;0.65;;;2.30;99.90;;;;;;4999452;28;20087;-74
2022/03/04 00:09:21;;;;;;;0.30;0.30;;;2.30;99.90;;;;;;4979034;28;20084;-74
2022/03/04 00:11:50;;;;;;;0.20;0.20;;;2.30;99.90;;;;;;4993700;28;20120;-74
2022/03/04 00:14:15;;;;;;;0.10;0.10;;;2.30;99.90;;;;;;4997995;28;20042;-74
2022/03/04 00:16:41;;;;;;;0.43;0.43;;;2.20;99.90;;;;;;4978464;28;20551;-74
2022/03/04 00:19:07;;;;;;;0.22;0.22;;;2.20;99.90;;;;;;4980313;28;20034;-74
2022/03/04 00:21:38;;;;;;;0.82;0.25;;;2.30;99.90;;;;;;4996249;28;20070;-74
2022/03/04 00:24:06;;;;;;;1.67;0.65;;;2.30;99.90;;;;;;4975887;28;20033;-74
2022/03/04 00:26:32;;;;;;;0.05;0.05;;;2.30;99.90;;;;;;4975936;28;20073;-74
2022/03/04 00:28:58;;;;;;;0.85;0.30;;;2.20;99.90;;;;;;4993369;28;20041;-74
2022/03/04 00:31:24;;;;;;;0.10;0.10;;;2.20;99.90;;;;;;4995782;28;20042;-74
2022/03/04 00:33:51;;;;;;;1.30;0.20;;;2.20;99.90;;;;;;4993981;28;20048;-74
2022/03/04 00:36:17;;;;;;;1.38;0.93;;;2.20;99.90;;;;;;4986635;28;20689;-74
2022/03/04 00:38:43;;;;;;;1.40;1.30;;;2.20;99.90;;;;;;4993146;28;20128;-74
2022/03/04 00:41:08;;;;;;;1.10;0.80;;;2.20;99.90;;;;;;4978580;28;20503;-74
2022/03/04 00:43:34;;;;;;;0.65;0.43;;;2.20;99.90;;;;;;4976473;28;20049;-74
2022/03/04 00:46:00;;;;;;;2.00;0.65;;;2.10;99.90;;;;;;4980936;28;20038;-74
2022/03/04 00:48:25;;;;;;;0.10;0.10;;;2.10;99.90;;;;;;4996547;28;20080;-74
2022/03/04 00:50:51;;;;;;;1.67;0.52;;;2.10;99.90;;;;;;4993035;28;20503;-75
2022/03/04 00:53:18;;;;;;;0.40;0.40;;;2.10;99.90;;;;;;4975429;28;20137;-74
2022/03/04 00:55:43;;;;;;;1.58;0.70;;;2.10;99.90;;;;;;4980655;28;20073;-74
2022/03/04 00:58:09;;;;;;;0.80;0.20;;;2.10;99.90;;;;;;4984346;28;20077;-74
2022/03/04 01:00:36;;;;;;;0.32;0.32;;;2.00;99.90;;;;;;4977216;28;20677;-74
2022/03/04 01:03:03;;;;;;;0.30;0.30;;;2.00;99.90;;;;;;4986189;28;20499;-74
2022/03/04 01:05:29;;;;;;;0.43;0.43;;;2.00;99.90;;;;;;4997521;28;20033;-74
2022/03/04 01:07:55;;;;;;;0.15;0.15;;;2.00;99.90;;;;;;4992158;28;21952;-74
2022/03/04 01:10:21;;;;;;;1.63;0.50;;;2.00;99.90;;;;;;4978898;28;20099;-74
2022/03/04 01:12:46;;;;;;;0.95;0.75;;;2.00;99.90;;;;;;4994649;28;20038;-74
2022/03/04 01:15:12;;;;;;;0.17;0.17;;;2.00;99.90;;;;;;4992844;28;20049;-74
2022/03/04 01:17:38;;;;;;;0.45;0.45;;;2.00;99.90;;;;;;4994541;28;20042;-74
2022/03/04 01:20:05;;;;;;;0.20;0.20;;;1.90;99.90;;;;;;4996163;28;20069;-74
2022/03/04 01:22:31;;;;;;;0.35;0.35;;;1.90;99.90;;;;;;4979945;28;20467;-74
2022/03/04 01:24:57;;;;;;;0.15;0.15;;;2.00;99.90;;;;;;4992553;28;20077;-74
2022/03/04 01:27:23;;;;;;;0.30;0.25;;;1.90;99.90;;;;;;4974450;28;20041;-74
2022/03/04 01:29:49;;;;;;;0.80;0.38;;;1.90;99.90;;;;;;4980466;28;20052;-74
2022/03/04 01:32:14;;;;;;;0.10;0.10;;;1.80;99.90;;;;;;4995665;28;20062;-74
2022/03/04 01:34:40;;;;;;;0.90;0.65;;;1.80;99.90;;;;;;4994929;28;20447;-74
2022/03/04 01:37:07;;;;;;;0.28;0.10;;;1.70;99.90;;;;;;4982201;28;20040;-74
2022/03/04 01:39:33;;;;;;;0.57;0.32;;;1.70;99.90;;;;;;4996245;28;20040;-74
2022/03/04 01:41:58;;;;;;;0.50;0.50;;;1.70;99.90;;;;;;4972352;28;20038;-74
2022/03/04 01:44:24;;;;;;;0.30;0.30;;;1.70;99.90;;;;;;4994245;28;20034;-74
2022/03/04 01:46:50;;;;;;;1.00;0.75;;;1.70;99.90;;;;;;4977782;28;20033;-74
2022/03/04 01:49:16;;;;;;;1.05;0.50;;;1.60;99.90;;;;;;4995638;28;20068;-74
2022/03/04 01:51:42;;;;;;;0.15;0.15;;;1.70;99.90;;;;;;4999054;28;20087;-75
2022/03/04 01:54:08;;;;;;;1.83;1.25;;;1.70;99.90;;;;;;4992099;28;20510;-74
2022/03/04 01:56:34;;;;;;;1.55;0.28;;;1.60;99.90;;;;;;4991053;28;20030;-74
2022/03/04 01:59:00;;;;;;;2.70;0.75;;;1.60;99.90;;;;;;4993544;28;20506;-74
2022/03/04 02:01:26;;;;;;;0.13;0.13;;;1.60;99.90;;;;;;4988152;28;20029;-74
2022/03/04 02:03:51;;;;;;;2.22;0.93;;;1.60;99.90;;;;;;4990988;28;20076;-75
2022/03/04 02:06:17;;;;;;;0.52;0.52;;;1.60;99.90;;;;;;5009809;28;20041;-74
2022/03/04 02:08:43;;;;;;;0.20;0.20;;;1.50;99.90;;;;;;4976973;28;20044;-74
2022/03/04 02:11:08;;;;;;;0.00;0.00;;;1.50;99.90;;;;;;4972472;28;20063;-74
2022/03/04 02:13:37;;;;;;;0.03;0.03;;;1.50;99.90;;;;;;4979689;28;20193;-74
2022/03/04 02:16:08;;;;;;;0.25;0.25;;;1.40;99.90;;;;;;4991296;28;20042;-74
2022/03/04 02:18:33;;;;;;;0.75;0.43;;;1.40;99.90;;;;;;4994307;28;20060;-74
2022/03/04 02:21:02;;;;;;;0.38;0.22;;;1.40;99.90;;;;;;4976293;28;20033;-74
2022/03/04 02:23:28;;;;;;;1.05;0.55;;;1.40;99.90;;;;;;4995673;28;20555;-74
2022/03/04 02:25:53;;;;;;;0.45;0.45;;;1.40;99.90;;;;;;4973847;28;20121;-74
2022/03/04 02:28:22;;;;;;;1.85;0.32;;;1.40;99.90;;;;;;4989980;28;20129;-74
2022/03/04 02:30:47;;;;;;;0.10;0.10;;;1.40;99.90;;;;;;4976969;28;20041;-74
2022/03/04 02:33:13;;;;;;;0.10;0.10;;;1.30;99.90;;;;;;4991322;28;20050;-74
2022/03/04 02:35:40;;;;;;;1.15;0.68;;;1.30;99.90;;;;;;4972175;28;20041;-74
2022/03/04 02:38:06;;;;;;;1.20;0.57;;;1.30;99.90;;;;;;4973254;28;20034;-74
2022/03/04 02:40:32;;;;;;;0.40;0.40;;;1.30;99.90;;;;;;4988447;28;20040;-74
2022/03/04 02:42:58;;;;;;;0.65;0.60;;;1.30;99.90;;;;;;4992059;28;20129;-74
2022/03/04 02:45:24;;;;;;;1.15;0.85;;;1.20;99.90;;;;;;4994172;28;20124;-74
2022/03/04 02:47:49;;;;;;;0.30;0.30;;;1.20;99.90;;;;;;4978857;28;21007;-74
2022/03/04 02:50:15;;;;;;;0.20;0.20;;;1.30;99.90;;;;;;4994350;28;20045;-74
2022/03/04 02:52:41;;;;;;;0.10;0.10;;;1.20;99.90;;;;;;4993848;28;20503;-74
2022/03/04 02:55:10;;;;;;;1.60;0.65;;;1.20;99.90;;;;;;4986641;28;20049;-74
2022/03/04 02:57:36;;;;;;;0.70;0.55;;;1.30;99.90;;;;;;4982448;28;20162;-75
2022/03/04 03:00:04;;;;;;;0.00;0.00;;;1.20;99.90;;;;;;4965986;28;20038;-74
2022/03/04 03:02:30;;;;;;;0.28;0.17;;;1.20;99.90;;;;;;4966604;28;20491;-74
2022/03/04 03:04:55;;;;;;;0.30;0.20;;;1.20;99.90;;;;;;5004156;28;20080;-74
2022/03/04 03:07:21;;;;;;;1.77;0.75;;;1.20;99.90;;;;;;4994708;28;20038;-74
2022/03/04 03:09:46;;;;;;;0.22;0.22;;;1.20;99.90;;;;;;4972652;28;20505;-74
2022/03/04 03:12:12;;;;;;;0.30;0.30;;;1.20;99.90;;;;;;4994327;28;20038;-74
2022/03/04 03:14:38;;;;;;;0.30;0.30;;;1.10;99.90;;;;;;4982006;28;20071;-74
2022/03/04 03:17:04;;;;;;;0.10;0.10;;;1.20;99.90;;;;;;4995254;28;20061;-74
2022/03/04 03:19:29;;;;;;;1.70;0.75;;;1.10;99.90;;;;;;4995698;28;20154;-74
2022/03/04 03:21:55;;;;;;;0.90;0.20;;;1.10;99.90;;;;;;4996828;28;20139;-74
2022/03/04 03:24:21;;;;;;;3.83;0.90;;;1.10;99.90;;;;;;4995745;28;20104;-74
2022/03/04 03:26:46;;;;;;;0.22;0.22;;;1.00;99.90;;;;;;4996271;28;20531;-74
2022/03/04 03:29:12;;;;;;;1.10;1.00;;;1.00;99.90;;;;;;4976096;28;20104;-74
2022/03/04 03:31:38;;;;;;;0.80;0.57;;;1.00;99.90;;;;;;4999434;28;20056;-74
2022/03/04 03:34:03;;;;;;;0.70;0.70;;;1.00;99.90;;;;;;4996808;28;20044;-74
2022/03/04 03:36:29;;;;;;;2.30;0.60;;;1.00;99.90;;;;;;4998694;28;20530;-74
2022/03/04 03:38:55;;;;;;;0.47;0.47;;;1.00;99.90;;;;;;4994974;28;20045;-75
2022/03/04 03:41:20;;;;;;;0.75;0.50;;;0.90;99.90;;;;;;4995095;28;20041;-74
2022/03/04 03:43:47;;;;;;;4.45;1.50;;;1.00;99.90;;;;;;4979695;28;20042;-74
2022/03/04 03:46:13;;;;;;;0.43;0.25;;;0.90;99.90;;;;;;4996455;28;20046;-75
2022/03/04 03:48:40;;;;;;;0.65;0.65;;;1.00;99.90;;;;;;4980636;28;20104;-74
2022/03/04 03:51:06;;;;;;;0.30;0.30;;;1.00;99.90;;;;;;4994993;28;20041;-74
2022/03/04 03:53:32;;;;;;;0.57;0.50;;;1.00;99.90;;;;;;4978189;28;20122;-74
2022/03/04 03:55:57;;;;;;;0.38;0.38;;;1.00;99.90;;;;;;4996087;28;20120;-74
2022/03/04 03:58:23;;;;;;;0.20;0.20;;;1.00;99.90;;;;;;4979555;28;20881;-74
2022/03/04 04:00:49;;;;;;;0.35;0.35;;;1.00;99.90;;;;;;4977667;28;20645;-74
2022/03/04 04:03:15;;;;;;;0.10;0.10;;;1.00;99.90;;;;;;4975913;28;20060;-74
2022/03/04 04:05:41;;;;;;;1.13;1.00;;;1.00;99.90;;;;;;4993064;28;20040;-75
2022/03/04 04:08:06;;;;;;;0.57;0.35;;;1.00;99.90;;;;;;4980206;28;20041;-75
2022/03/04 04:10:32;;;;;;;1.48;1.35;;;0.90;99.90;;;;;;4994170;28;20858;-75
2022/03/04 04:12:58;;;;;;;0.75;0.38;;;0.90;99.90;;;;;;4993264;28;20518;-75
2022/03/04 04:15:23;;;;;;;4.30;0.57;;;1.00;99.90;;;;;;4980109;28;20779;-75
2022/03/04 04:17:49;;;;;;;0.20;0.20;;;1.00;99.90;;;;;;4993781;28;20061;-75
2022/03/04 04:20:14;;;;;;;3.22;0.50;;;0.90;99.90;;;;;;4994358;28;22121;-75
2022/03/04 04:22:40;;;;;;;0.10;0.10;;;1.00;99.90;;;;;;4978774;28;20046;-75
2022/03/04 04:25:06;;;;;;;0.35;0.22;;;0.90;99.90;;;;;;4990012;28;20038;-75
2022/03/04 04:27:32;;;;;;;1.95;1.10;;;0.90;99.90;;;;;;4991445;28;20042;-75
2022/03/04 04:29:57;;;;;;;0.10;0.10;;;0.90;99.90;;;;;;4981249;28;20033;-75
2022/03/04 04:32:23;;;;;;;0.38;0.38;;;0.90;99.90;;;;;;4996343;28;20108;-75
2022/03/04 04:34:49;;;;;;;0.43;0.43;;;0.90;99.90;;;;;;4996250;28;20092;-75
2022/03/04 04:37:14;;;;;;;0.90;0.38;;;0.90;99.90;;;;;;4982944;28;20026;-75
2022/03/04 04:39:40;;;;;;;1.77;1.45;;;0.90;99.90;;;;;;4975128;28;20038;-75
2022/03/04 04:42:06;;;;;;;0.43;0.43;;;0.80;99.90;;;;;;4980169;28;20687;-75
2022/03/04 04:44:31;;;;;;;0.10;0.10;;;0.80;99.90;;;;;;4993741;28;20081;-75
2022/03/04 04:46:57;;;;;;;0.90;0.52;;;0.80;99.90;;;;;;4979255;28;20052;-75
2022/03/04 04:49:23;;;;;;;4.85;0.63;;;0.90;99.90;;;;;;4994656;28;20038;-75
2022/03/04 04:51:49;;;;;;;2.30;0.88;;;0.80;99.90;;;;;;4991805;28;20096;-75
2022/03/04 04:54:15;;;;;;;0.20;0.20;;;0.80;99.90;;;;;;4990356;28;20057;-75
2022/03/04 04:56:40;;;;;;;0.32;0.20;;;0.80;99.90;;;;;;4993896;28;20715;-75
2022/03/04 04:59:06;;;;;;;1.52;1.42;;;0.80;99.90;;;;;;4993073;28;20467;-75
2022/03/04 05:01:31;;;;;;;1.35;1.00;;;0.80;99.90;;;;;;4971503;28;20041;-75
2022/03/04 05:03:57;;;;;;;1.75;1.08;;;0.70;99.90;;;;;;4984626;28;20087;-75
2022/03/04 05:06:22;;;;;;;1.15;0.60;;;0.70;99.90;;;;;;4985123;28;20093;-75
2022/03/04 05:08:48;;;;;;;1.00;0.28;;;0.70;99.90;;;;;;4983734;28;20041;-75
2022/03/04 05:11:14;;;;;;;1.25;0.95;;;0.70;99.90;;;;;;4986861;28;20034;-75
2022/03/04 05:13:39;;;;;;;3.63;1.30;;;0.70;99.90;;;;;;4977729;28;20096;-75
2022/03/04 05:16:05;;;;;;;0.88;0.85;;;0.70;99.90;;;;;;4977427;28;20030;-75
2022/03/04 05:18:31;;;;;;;2.50;1.48;;;0.70;99.90;;;;;;4997168;28;20038;-75
2022/03/04 05:20:57;;;;;;;0.20;0.20;;;0.70;99.90;;;;;;4982273;28;20064;-75
2022/03/04 05:26:06;;;;;;;0.20;0.20;;;0.80;99.90;;;;;;4995618;28;20037;-75
2022/03/04 05:28:32;;;;;;;0.57;0.45;;;0.80;99.90;;;;;;4994370;28;20034;-75
2022/03/04 05:30:57;;;;;;;1.33;0.57;;;0.70;99.90;;;;;;4978057;28;20029;-75
2022/03/04 05:33:23;;;;;;;0.95;0.52;;;0.80;99.90;;;;;;4998107;28;20049;-75
2022/03/04 05:35:49;;;;;;;2.55;0.77;;;0.80;99.90;;;;;;4990734;28;20495;-75
2022/03/04 05:38:14;;;;;;;6.13;0.57;;;0.70;99.90;;;;;;4991416;28;20120;-75
2022/03/04 05:40:40;;;;;;;1.65;0.45;;;0.80;99.90;;;;;;4975013;28;20038;-75
2022/03/04 05:43:07;;;;;;;0.68;0.40;;;0.80;99.90;;;;;;4977368;28;20049;-75
2022/03/04 05:45:32;;;;;;;1.33;0.98;;;0.70;99.90;;;;;;4977683;28;20042;-75
2022/03/04 05:47:58;;;;;;;1.35;0.65;;;0.70;99.90;;;;;;4977353;28;20456;-75
2022/03/04 05:50:24;;;;;;;0.40;0.40;;;0.70;99.90;;;;;;4977410;28;20128;-75
2022/03/04 05:52:49;;;;;;;0.20;0.20;;;0.60;99.90;;;;;;4972500;28;20483;-75
2022/03/04 05:55:16;;;;;;;0.90;0.90;;;0.60;99.90;;;;;;4990372;28;20042;-75
2022/03/04 05:57:41;;;;;;;0.55;0.32;;;0.60;99.90;;;;;;4993931;28;20466;-75
2022/03/04 06:00:08;;;;;;;1.80;0.85;;;0.60;99.90;;;;;;4979600;28;20144;-75
2022/03/04 06:02:33;;;;;;;0.68;0.68;;;0.60;99.90;;;;;;4997764;28;20061;-75
2022/03/04 06:04:59;;;;;;;0.35;0.35;;;0.60;99.90;;;;;;4995513;28;20064;-75
2022/03/04 06:07:25;;;;;;;0.05;0.05;;;0.70;99.90;;;;;;4985214;28;20053;-75
2022/03/04 06:09:50;;;;;;;1.20;0.63;;;0.70;99.90;;;;;;4991931;28;20088;-75
2022/03/04 06:12:16;;;;;;;1.25;0.90;;;0.70;99.90;;;;;;4977192;28;20057;-75
2022/03/04 06:14:42;;;;;;;1.48;1.38;;;0.70;99.90;;;;;;4973773;28;20610;-75
2022/03/04 06:17:07;;;;;;;0.40;0.40;;;0.80;99.90;;;;;;4978564;28;20056;-75
2022/03/04 06:19:33;;;;;;;1.00;0.80;;;0.80;99.90;;;;;;4991298;28;20040;-75
2022/03/04 06:21:59;;;;;;;0.88;0.88;;;0.80;99.90;;;;;;4977747;28;20030;-75
2022/03/04 06:24:24;;;;;;;3.63;1.13;;;0.80;99.90;;;;;;4976390;28;20407;-75
2022/03/04 06:26:50;;;;;;;0.20;0.20;;;0.80;99.90;;;;;;4972565;28;20045;-75
2022/03/04 06:29:16;;;;;;;0.43;0.40;;;0.80;99.90;;;;;;4990279;28;20045;-75
2022/03/04 06:31:41;;;;;;;0.20;0.20;;;0.80;99.90;;;;;;4994009;28;20054;-75
2022/03/04 06:34:07;;;;;;;0.63;0.63;;;0.80;99.90;;;;;;4975954;28;20912;-75
2022/03/04 06:36:33;;;;;;;1.17;0.50;;;0.80;99.90;;;;;;4989826;28;20030;-75
2022/03/04 06:38:58;;;;;;;0.20;0.20;;;0.70;99.90;;;;;;4994614;28;20034;-75
2022/03/04 06:41:24;;;;;;;0.15;0.10;;;0.70;99.90;;;;;;4992032;28;20034;-75
2022/03/04 06:43:50;;;;;;;1.40;0.43;;;0.70;99.90;;;;;;4991203;28;20042;-75
2022/03/04 06:46:16;;;;;;;1.17;1.08;;;0.70;99.90;;;;;;4995613;28;20432;-75
2022/03/04 06:48:42;;;;;;;0.93;0.55;;;0.70;99.90;;;;;;4997471;28;21759;-75
2022/03/04 06:51:08;;;;;;;0.20;0.20;;;0.70;99.90;;;;;;4998798;28;20042;-75
2022/03/04 06:53:34;;;;;;;0.63;0.63;;;0.70;99.90;;;;;;4992457;28;20045;-76
2022/03/04 06:55:59;;;;;;;0.17;0.17;;;0.70;99.90;;;;;;4998334;28;20034;-75
2022/03/04 06:58:26;;;;;;;0.32;0.32;;;0.70;99.90;;;;;;4982165;28;20037;-75
2022/03/04 07:00:52;;;;;;;0.22;0.22;;;0.70;99.90;;;;;;4980279;28;20105;-75
2022/03/04 07:03:18;;;;;;;1.30;0.20;;;0.70;99.90;;;;;;4978101;28;20495;-75
2022/03/04 07:05:45;;;;;;;0.60;0.60;;;0.70;99.90;;;;;;4972662;28;20540;-75
2022/03/04 07:08:12;;;;;;;0.17;0.13;;;0.70;99.90;;;;;;4988707;28;20541;-75
2022/03/04 07:10:39;;;;;;;1.65;0.65;;;0.70;99.90;;;;;;4969736;28;20042;-75
2022/03/04 07:13:06;;;;;;;0.52;0.40;;;0.70;99.90;;;;;;4983783;28;20399;-75
2022/03/04 07:15:31;;;;;;;1.60;1.05;;;0.60;99.90;;;;;;4989354;28;20595;-75
2022/03/04 07:17:57;;;;;;;0.90;0.30;;;0.70;99.90;;;;;;4995769;28;20116;-75
2022/03/04 07:20:23;;;;;;;0.43;0.35;;;0.70;99.90;;;;;;4989635;28;20641;-76
2022/03/04 07:22:48;;;;;;;2.30;1.00;;;0.70;99.90;;;;;;4977701;28;20407;-75
2022/03/04 07:25:15;;;;;;;5.28;0.47;;;0.70;99.90;;;;;;4995005;28;20041;-75
2022/03/04 07:27:41;;;;;;;3.53;1.15;;;0.70;99.90;;;;;;4997741;28;20037;-75
2022/03/04 07:30:10;;;;;;;0.32;0.32;;;0.70;99.90;;;;;;4977876;28;20450;-76
2022/03/04 07:32:37;;;;;;;0.00;0.00;;;0.70;99.90;;;;;;4989152;28;20054;-76
2022/03/04 07:35:03;;;;;;;0.15;0.15;;;0.70;99.90;;;;;;4975662;28;21297;-77
2022/03/04 07:37:29;;;;;;;3.25;0.98;;;0.70;99.90;;;;;;4993971;28;20046;-75
2022/03/04 07:39:54;;;;;;;0.32;0.20;;;0.70;99.90;;;;;;4975501;28;20033;-76
2022/03/04 07:42:22;;;;;;;1.88;0.60;;;0.70;99.90;;;;;;4989635;28;20393;-76
2022/03/04 07:44:48;;;;;;;1.25;0.50;;;0.80;99.90;;;;;;4996459;28;20400;-75
2022/03/04 07:47:13;;;;;;;0.43;0.30;;;0.80;99.90;;;;;;4981004;28;20042;-76
2022/03/04 07:49:42;;;;;;;1.85;1.50;;;0.80;99.90;;;;;;4991087;28;20037;-76
2022/03/04 07:52:08;;;;;;;3.20;0.40;;;0.80;99.90;;;;;;4974727;28;20476;-76
2022/03/04 07:54:34;;;;;;;0.95;0.40;;;0.80;99.90;;;;;;4986864;28;20045;-76
2022/03/04 07:56:59;;;;;;;0.32;0.25;;;0.80;99.90;;;;;;4988580;28;20042;-76
2022/03/04 07:59:25;;;;;;;2.97;1.30;;;0.90;99.90;;;;;;4969866;28;20038;-76
2022/03/04 08:01:51;;;;;;;0.22;0.13;;;0.80;99.90;;;;;;4975667;28;20353;-76
2022/03/04 08:04:16;;;;;;;1.02;0.38;;;0.80;99.90;;;;;;4983831;28;21972;-76
2022/03/04 08:06:42;;;;;;;0.30;0.22;;;0.90;99.90;;;;;;4962780;28;20088;-76
2022/03/04 08:09:07;;;;;;;0.50;0.50;;;0.90;99.90;;;;;;4986688;28;20085;-76
2022/03/04 08:11:34;;;;;;;0.22;0.22;;;0.90;99.90;;;;;;4969614;28;20062;-76
2022/03/04 08:13:59;;;;;;;0.38;0.38;;;0.90;99.90;;;;;;4985578;28;20451;-75
2022/03/04 08:16:25;;;;;;;0.70;0.52;;;0.90;99.90;;;;;;4970919;28;20065;-75
2022/03/04 08:18:52;;;;;;;0.45;0.30;;;1.00;99.90;;;;;;4985215;28;20042;-75
2022/03/04 08:21:18;;;;;;;1.05;0.85;;;1.00;99.90;;;;;;4967449;28;20843;-76
2022/03/04 08:23:43;;;;;;;5.57;0.65;;;1.00;99.90;;;;;;4971090;28;20111;-76
2022/03/04 08:26:09;;;;;;;1.65;1.15;;;1.10;99.90;;;;;;4972658;28;20483;-75
2022/03/04 08:28:35;;;;;;;1.55;0.95;;;1.10;99.90;;;;;;4990981;28;20610;-75
2022/03/04 08:31:03;;;;;;;2.55;1.38;;;1.10;99.90;;;;;;4981330;28;20041;-75
2022/03/04 08:33:28;;;;;;;0.63;0.47;;;1.20;99.90;;;;;;4967170;28;20125;-75
2022/03/04 08:35:54;;;;;;;0.00;0.00;;;1.20;99.90;;;;;;4972361;28;20048;-75
2022/03/04 08:38:20;;;;;;;0.35;0.35;;;1.20;99.90;;;;;;4986281;28;20069;-75
2022/03/04 08:40:46;;;;;;;0.70;0.38;;;1.10;99.90;;;;;;4979554;28;20046;-74
2022/03/04 08:43:12;;;;;;;0.77;0.68;;;1.10;99.90;;;;;;4986995;28;20046;-74
2022/03/04 08:45:38;;;;;;;0.38;0.32;;;1.10;99.90;;;;;;4988276;28;20049;-74
2022/03/04 08:48:06;;;;;;;1.30;0.52;;;1.10;99.90;;;;;;4985444;28;20038;-75
2022/03/04 08:50:33;;;;;;;1.25;0.73;;;1.10;99.90;;;;;;4982479;28;20046;-75
2022/03/04 08:53:01;;;;;;;0.35;0.32;;;1.20;99.90;;;;;;4970121;28;20092;-74
2022/03/04 08:55:30;;;;;;;1.05;0.77;;;1.20;99.90;;;;;;4980849;28;20472;-74
2022/03/04 08:57:57;;;;;;;0.52;0.45;;;1.30;99.90;;;;;;4964700;28;20070;-75
2022/03/04 09:00:24;;;;;;;0.68;0.50;;;1.30;99.90;;;;;;4982361;28;20071;-75
2022/03/04 09:02:50;;;;;;;1.05;0.73;;;1.40;99.90;;;;;;4984526;28;20120;-75
2022/03/04 09:05:16;;;;;;;1.08;0.32;;;1.50;99.90;;;;;;4986705;28;20053;-75
2022/03/04 09:07:42;;;;;;;1.17;0.95;;;1.50;99.90;;;;;;4971721;28;20054;-75
2022/03/04 09:10:08;;;;;;;1.40;0.90;;;1.60;99.90;;;;;;4989670;28;20052;-75
2022/03/04 09:12:34;;;;;;;0.43;0.43;;;1.60;99.90;;;;;;4992920;28;20403;-75
2022/03/04 09:15:00;;;;;;;1.33;1.10;;;1.60;99.90;;;;;;4970347;28;20492;-75
2022/03/04 09:17:26;;;;;;;1.38;0.45;;;1.60;99.90;;;;;;4989378;28;20543;-75
2022/03/04 09:19:52;;;;;;;0.10;0.10;;;1.60;99.90;;;;;;4992312;28;20132;-75
2022/03/04 09:22:17;;;;;;;0.85;0.63;;;1.60;99.90;;;;;;4987164;28;20094;-74
2022/03/04 09:24:43;;;;;;;0.47;0.45;;;1.70;99.90;;;;;;4969460;28;20042;-74
2022/03/04 09:27:10;;;;;;;1.20;1.08;;;1.80;99.90;;;;;;4969021;28;20047;-75
2022/03/04 09:29:35;;;;;;;1.88;0.40;;;1.80;99.90;;;;;;5008453;28;20053;-74
2022/03/04 09:32:01;;;;;;;0.55;0.47;;;1.90;99.90;;;;;;4991786;28;20128;-74
2022/03/04 09:34:27;;;;;;;1.58;1.02;;;2.00;99.90;;;;;;4973064;28;20141;-74
2022/03/04 09:36:52;;;;;;;0.98;0.73;;;2.00;99.90;;;;;;4969026;28;20072;-74
2022/03/04 09:39:18;;;;;;;0.43;0.32;;;2.00;99.90;;;;;;4966080;28;20041;-74
2022/03/04 09:41:45;;;;;;;0.75;0.55;;;2.00;99.90;;;;;;4990742;28;20029;-74
2022/03/04 09:44:15;;;;;;;1.20;1.10;;;1.90;99.90;;;;;;4972985;28;20057;-74
2022/03/04 09:46:42;;;;;;;0.15;0.15;;;1.80;99.90;;;;;;4990337;28;20121;-75
2022/03/04 09:49:08;;;;;;;0.45;0.38;;;1.90;99.90;;;;;;4986863;28;20176;-75
2022/03/04 09:51:34;;;;;;;1.48;1.30;;;1.90;99.90;;;;;;4987607;28;20053;-75
2022/03/04 09:54:00;;;;;;;0.68;0.68;;;1.90;99.90;;;;;;4965664;28;20045;-75
2022/03/04 09:56:26;;;;;;;0.20;0.20;;;1.90;99.90;;;;;;4958006;28;20057;-75
2022/03/04 09:58:52;;;;;;;2.50;0.20;;;1.90;99.90;;;;;;4986147;28;20399;-75
2022/03/04 10:01:18;;;;;;;0.52;0.40;;;2.00;99.90;;;;;;4988838;28;20053;-74
2022/03/04 10:03:49;;;;;;;0.10;0.10;;;2.10;99.90;;;;;;4971006;28;20121;-74
2022/03/04 10:06:16;;;;;;;0.90;0.80;;;2.10;99.90;;;;;;4974219;28;20128;-74
2022/03/04 10:08:44;;;;;;;0.00;0.00;;;2.20;99.90;;;;;;4980282;28;20046;-74
2022/03/04 10:11:11;;;;;;;0.68;0.68;;;2.20;99.90;;;;;;4971079;28;20453;-74
2022/03/04 10:13:41;;;;;;;0.30;0.30;;;2.20;99.90;;;;;;4986529;28;20140;-74
2022/03/04 10:16:07;;;;;;;0.52;0.45;;;2.20;99.90;;;;;;4983116;28;20037;-74
2022/03/04 10:18:32;;;;;;;2.08;1.15;;;2.20;99.90;;;;;;4984581;28;20034;-74
2022/03/04 10:20:58;;;;;;;1.30;1.13;;;2.10;99.90;;;;;;4981493;28;20588;-74
2022/03/04 10:23:26;;;;;;;1.38;0.82;;;2.10;99.90;;;;;;4989247;28;20049;-74
2022/03/04 10:25:54;;;;;;;1.08;0.85;;;2.20;99.90;;;;;;4985271;28;20042;-75
2022/03/04 10:28:25;;;;;;;2.72;1.55;;;2.20;99.90;;;;;;4985479;28;20132;-74
2022/03/04 10:30:52;;;;;;;0.25;0.25;;;2.20;99.90;;;;;;4983137;28;20046;-74
2022/03/04 10:33:23;;;;;;;1.75;0.85;;;2.20;99.90;;;;;;4981270;28;21225;-74
2022/03/04 10:36:14;;;;;;;0.75;0.75;;;2.20;99.90;;;;;;4982089;28;20447;-74
2022/03/04 10:38:41;;;;;;;2.28;0.95;;;2.10;99.90;;;;;;4980619;28;20048;-74
2022/03/04 10:41:29;;;;;;;1.10;0.32;;;2.20;99.90;;;;;;4979366;28;20166;-74
2022/03/04 10:43:56;;;;;;;0.88;0.80;;;2.20;99.90;;;;;;4981776;28;20056;-74
2022/03/04 10:46:22;;;;;;;0.75;0.47;;;2.20;99.90;;;;;;4986643;28;20112;-74
2022/03/04 10:48:57;;;;;;;0.38;0.38;;;2.20;99.90;;;;;;4970523;28;20079;-74
2022/03/04 10:51:36;;;;;;;0.60;0.47;;;2.30;99.90;;;;;;4987335;28;20046;-74
2022/03/04 10:54:16;;;;;;;1.85;1.17;;;2.40;99.90;;;;;;4968988;28;20041;-74
2022/03/04 10:56:54;;;;;;;2.65;1.40;;;2.40;99.90;;;;;;4985088;28;20045;-74
2022/03/04 10:59:21;;;;;;;0.50;0.40;;;2.50;99.90;;;;;;4971533;28;20065;-74
2022/03/04 11:01:51;;;;;;;1.38;0.77;;;2.60;99.90;;;;;;4979967;28;20435;-73
2022/03/04 11:04:18;;;;;;;0.52;0.47;;;2.60;99.90;;;;;;4973493;28;20471;-74
2022/03/04 11:06:46;;;;;;;1.27;1.17;;;2.70;99.90;;;;;;4981331;28;20061;-75
2022/03/04 11:09:17;;;;;;;0.50;0.50;;;2.70;99.90;;;;;;4981822;28;20050;-74
2022/03/04 11:11:43;;;;;;;2.13;0.38;;;2.80;99.90;;;;;;4979439;28;20515;-74
2022/03/04 11:14:13;;;;;;;2.30;1.05;;;2.80;99.90;;;;;;4986641;28;20046;-74
2022/03/04 11:16:40;;;;;;;0.90;0.88;;;2.80;99.90;;;;;;4954043;28;20043;-74
2022/03/04 11:19:06;;;;;;;0.05;0.05;;;2.90;99.90;;;;;;4978652;28;20037;-74
2022/03/04 11:21:32;;;;;;;1.92;1.40;;;3.00;99.90;;;;;;4978508;28;20038;-74
2022/03/04 11:23:58;;;;;;;1.48;0.63;;;3.00;99.90;;;;;;4977675;28;20240;-74
2022/03/04 11:26:27;;;;;;;0.82;0.75;;;3.10;99.90;;;;;;4982037;28;20539;-74
2022/03/04 11:28:54;;;;;;;1.58;1.48;;;3.10;99.90;;;;;;4965792;28;20040;-74
2022/03/04 11:31:22;;;;;;;0.22;0.22;;;3.20;99.90;;;;;;4981143;28;20100;-74
2022/03/04 11:33:58;;;;;;;0.52;0.52;;;3.30;99.90;;;;;;4979472;28;20584;-74
2022/03/04 11:36:30;;;;;;;2.20;1.27;;;3.30;99.90;;;;;;4979605;28;20046;-74
2022/03/04 11:38:58;;;;;;;5.38;0.75;;;3.40;99.90;;;;;;4967339;28;20034;-74
2022/03/04 11:41:25;;;;;;;0.10;0.10;;;3.40;99.90;;;;;;4971164;28;20034;-74
2022/03/04 11:43:56;;;;;;;5.93;1.70;;;3.50;99.90;;;;;;4985850;28;20455;-74
2022/03/04 11:46:28;;;;;;;0.43;0.43;;;3.60;99.90;;;;;;4988270;28;20030;-74
2022/03/04 11:49:32;;;;;;;0.32;0.30;;;3.60;99.90;;;;;;4981653;28;20083;-75
2022/03/04 11:52:10;;;;;;;1.70;0.55;;;3.70;99.90;;;;;;4995797;28;20036;-75
2022/03/04 11:54:53;;;;;;;0.13;0.13;;;3.70;99.90;;;;;;4986443;28;20044;-73
2022/03/04 11:57:22;;;;;;;1.48;0.43;;;3.80;99.90;;;;;;4965598;28;20060;-75
2022/03/04 11:59:49;;;;;;;1.27;0.80;;;3.80;99.90;;;;;;4990912;28;20183;-75
2022/03/04 12:02:26;;;;;;;1.65;0.50;;;3.90;99.90;;;;;;4968420;28;20066;-75
2022/03/04 12:05:23;;;;;;;0.98;0.70;;;3.90;99.90;;;;;;4963088;28;20561;-75
2022/03/04 12:07:51;;;;;;;0.77;0.65;;;4.00;99.90;;;;;;4978990;28;20444;-75
2022/03/04 12:10:21;;;;;;;2.40;1.13;;;4.00;99.90;;;;;;4946359;28;20457;-75
2022/03/04 12:13:00;;;;;;;1.58;0.88;;;4.10;99.90;;;;;;4965550;28;20039;-75
2022/03/04 12:15:26;;;;;;;0.08;0.00;;;4.10;99.90;;;;;;4984102;28;20034;-75
2022/03/04 12:18:25;;;;;;;0.10;0.10;;;4.20;99.90;;;;;;4965979;28;20041;-75
2022/03/04 12:20:56;;;;;;;1.10;0.38;;;4.20;99.90;;;;;;4976501;28;20044;-75
2022/03/04 12:23:42;;;;;;;0.63;0.63;;;4.30;99.90;;;;;;4988792;28;20385;-75
2022/03/04 12:26:26;;;;;;;0.47;0.47;;;4.40;99.90;;;;;;4985128;28;20045;-75
2022/03/04 12:29:07;;;;;;;5.47;0.82;;;4.40;99.90;;;;;;4969022;28;20810;-75
2022/03/04 12:31:39;;;;;;;0.10;0.10;;;4.50;99.90;;;;;;4981537;28;20046;-75
2022/03/04 12:34:13;;;;;;;0.52;0.38;;;4.50;99.90;;;;;;4989792;28;20385;-76
2022/03/04 12:36:39;;;;;;;1.05;0.43;;;4.60;99.90;;;;;;4982701;28;20684;-75
2022/03/04 12:39:05;;;;;;;0.20;0.20;;;4.60;99.90;;;;;;4985663;28;20034;-75
2022/03/04 12:41:32;;;;;;;0.45;0.30;;;4.70;99.90;;;;;;4989005;28;20082;-75
2022/03/04 12:44:04;;;;;;;1.25;0.38;;;4.70;99.90;;;;;;4984804;28;20038;-75
2022/03/04 12:46:35;;;;;;;2.72;0.65;;;4.80;99.90;;;;;;4968414;28;20045;-75
2022/03/04 12:49:03;;;;;;;0.77;0.73;;;4.80;99.90;;;;;;4979438;28;20045;-75
2022/03/04 12:51:37;;;;;;;0.45;0.45;;;4.80;99.90;;;;;;4991535;28;20045;-75
2022/03/04 12:54:08;;;;;;;0.35;0.30;;;4.90;99.90;;;;;;4990474;28;20050;-75
2022/03/04 12:56:34;;;;;;;1.17;0.73;;;4.90;99.90;;;;;;4983049;28;20475;-75
2022/03/04 12:59:02;;;;;;;0.20;0.20;;;4.90;99.90;;;;;;4983296;28;20065;-75
2022/03/04 13:01:31;;;;;;;0.95;0.60;;;5.00;99.90;;;;;;4986573;28;20038;-75